createdAt,value
2019-02-22T00:00:19.341Z,5.4
2019-02-22T00:03:19.432Z,5.3
2019-02-22T00:06:19.465Z,5.4
2019-02-22T00:09:21.001Z,5.4
2019-02-22T00:12:19.635Z,5.5
2019-02-22T00:15:18.833Z,5.4
2019-02-22T00:18:19.175Z,5.5
2019-02-22T00:21:20.745Z,5.5
2019-02-22T00:24:19.026Z,5.4
2019-02-22T00:27:19.191Z,5.5
2019-02-22T00:30:21.916Z,5.5
2019-02-22T00:33:19.223Z,5.5
2019-02-22T00:36:20.308Z,5.4
2019-02-22T00:42:18.912Z,5.3
2019-02-22T00:45:19.748Z,5.3
2019-02-22T00:48:18.865Z,5.2
2019-02-22T00:51:19.973Z,5.2
2019-02-22T00:54:19.095Z,5.3
2019-02-22T00:57:19.735Z,5.5
2019-02-22T01:00:19.238Z,5.4
2019-02-22T01:03:19.261Z,5.2
2019-02-22T01:06:19.364Z,5.3
2019-02-22T01:09:19.187Z,5.2
2019-02-22T01:12:19.203Z,5.3
2019-02-22T01:15:19.459Z,5.3
2019-02-22T01:18:19.050Z,5.3
2019-02-22T01:21:19.437Z,5.3
2019-02-22T01:24:19.141Z,5.4
2019-02-22T01:27:18.852Z,5.3
2019-02-22T01:30:19.212Z,5.3
2019-02-22T01:33:18.999Z,5.4
2019-02-22T01:36:19.203Z,5.5
2019-02-22T01:39:18.861Z,5.4
2019-02-22T01:42:18.933Z,5.3
2019-02-22T01:45:19.363Z,5.4
2019-02-22T01:48:19.179Z,5.3
2019-02-22T01:51:19.350Z,5.3
2019-02-22T01:54:19.858Z,5.3
2019-02-22T01:57:18.810Z,5.3
2019-02-22T02:00:20.894Z,5.4
2019-02-22T02:03:19.167Z,5.4
2019-02-22T02:06:19.345Z,5.4
2019-02-22T02:09:19.280Z,5.5
2019-02-22T02:12:19.139Z,5.6
2019-02-22T02:15:19.198Z,5.6
2019-02-22T02:18:19.803Z,6.1
2019-02-22T02:21:19.288Z,5.8
2019-02-22T02:24:18.972Z,5.6
2019-02-22T02:27:18.756Z,5.6
2019-02-22T02:30:19.423Z,5.5
2019-02-22T02:33:19.478Z,5.6
2019-02-22T02:36:19.220Z,5.5
2019-02-22T02:39:19.171Z,5.4
2019-02-22T02:42:19.426Z,5.4
2019-02-22T02:45:19.592Z,5.3
2019-02-22T02:48:20.061Z,5.4
2019-02-22T02:51:20.024Z,5.4
2019-02-22T02:54:19.539Z,5.4
2019-02-22T02:57:19.642Z,5.4
2019-02-22T03:00:19.143Z,5.5
2019-02-22T03:03:19.514Z,5.3
2019-02-22T03:06:18.948Z,5.4
2019-02-22T03:09:19.120Z,5.4
2019-02-22T03:12:19.322Z,5.4
2019-02-22T03:15:19.941Z,5.5
2019-02-22T03:18:19.087Z,5.3
2019-02-22T03:21:19.215Z,5.4
2019-02-22T03:24:19.445Z,5.5
2019-02-22T03:27:19.314Z,5.6
2019-02-22T03:30:20.126Z,5.6
2019-02-22T03:33:19.245Z,5.4
2019-02-22T03:36:19.155Z,5.4
2019-02-22T03:39:19.391Z,5.3
2019-02-22T03:42:19.402Z,5.2
2019-02-22T03:45:19.368Z,5.2
2019-02-22T03:48:19.385Z,5.3
2019-02-22T03:51:19.579Z,5.3
2019-02-22T03:54:19.381Z,5.3
2019-02-22T03:57:20.077Z,5.3
2019-02-22T04:00:20.051Z,5.3
2019-02-22T04:03:19.208Z,5.3
2019-02-22T04:06:19.438Z,5.3
2019-02-22T04:09:19.327Z,5.3
2019-02-22T04:12:20.179Z,5.4
2019-02-22T04:15:19.232Z,5.2
2019-02-22T04:18:19.752Z,5.3
2019-02-22T04:21:19.070Z,5.4
2019-02-22T04:24:19.107Z,5.4
2019-02-22T04:27:18.985Z,5.4
2019-02-22T04:30:18.883Z,5.4
2019-02-22T04:33:19.239Z,5.4
2019-02-22T04:36:19.481Z,5.2
2019-02-22T04:39:19.075Z,5.3
2019-02-22T04:42:19.087Z,5.1
2019-02-22T04:45:19.090Z,5.2
2019-02-22T04:48:19.283Z,5.2
2019-02-22T04:51:18.988Z,5.1
2019-02-22T04:54:19.218Z,5
2019-02-22T04:57:19.464Z,4.9
2019-02-22T05:00:18.776Z,4.8
2019-02-22T05:03:19.242Z,4.9
2019-02-22T05:06:18.808Z,4.8
2019-02-22T05:09:18.848Z,4.7
2019-02-22T05:12:18.862Z,4.8
2019-02-22T05:15:19.015Z,4.8
2019-02-22T05:18:20.083Z,4.8
2019-02-22T05:21:19.324Z,4.9
2019-02-22T05:24:19.000Z,4.7
2019-02-22T05:27:19.487Z,4.7
2019-02-22T05:30:19.606Z,4.6
2019-02-22T05:33:19.829Z,4.7
2019-02-22T05:36:19.411Z,4.6
2019-02-22T05:39:20.028Z,4.7
2019-02-22T05:42:23.889Z,4.7
2019-02-22T05:45:19.096Z,4.6
2019-02-22T05:48:18.976Z,4.7
2019-02-22T05:51:19.219Z,4.6
2019-02-22T05:54:18.973Z,4.5
2019-02-22T05:57:18.964Z,4.5
2019-02-22T06:00:19.401Z,4.5
2019-02-22T06:03:19.182Z,4.7
2019-02-22T06:06:19.183Z,4.6
2019-02-22T06:09:19.064Z,4.5
2019-02-22T06:12:19.270Z,4.5
2019-02-22T06:15:19.249Z,4.5
2019-02-22T06:18:19.472Z,4.5
2019-02-22T06:21:19.343Z,4.4
2019-02-22T06:24:19.839Z,4.4
2019-02-22T06:27:20.126Z,4.4
2019-02-22T06:30:18.963Z,4.5
2019-02-22T06:33:19.050Z,4.5
2019-02-22T06:36:19.096Z,4.4
2019-02-22T06:39:20.724Z,4.5
2019-02-22T06:42:18.792Z,4.6
2019-02-22T06:45:20.095Z,4.5
2019-02-22T06:48:19.056Z,4.5
2019-02-22T06:51:18.938Z,4.5
2019-02-22T06:54:19.418Z,4.4
2019-02-22T06:57:19.368Z,4.4
2019-02-22T07:00:19.176Z,4.4
2019-02-22T07:03:19.295Z,4.4
2019-02-22T07:06:20.269Z,4.4
2019-02-22T07:09:19.139Z,4.4
2019-02-22T07:12:19.033Z,4.5
2019-02-22T07:15:19.250Z,4.3
2019-02-22T07:18:19.182Z,4.3
2019-02-22T07:21:19.563Z,4.2
2019-02-22T07:24:19.633Z,4.3
2019-02-22T07:27:18.937Z,4.4
2019-02-22T07:30:20.820Z,4.3
2019-02-22T07:33:19.794Z,4.4
2019-02-22T07:36:19.129Z,4.4
2019-02-22T07:39:28.628Z,4.5
2019-02-22T07:42:19.130Z,4.5
2019-02-22T07:45:19.467Z,4.2
2019-02-22T07:48:18.995Z,4.3
2019-02-22T07:51:18.862Z,5.4
2019-02-22T07:54:18.931Z,5.4
2019-02-22T07:57:18.854Z,5
2019-02-22T08:00:18.944Z,5
2019-02-22T08:03:21.006Z,4.6
2019-02-22T08:06:19.228Z,4.5
2019-02-22T08:09:18.999Z,4.3
2019-02-22T08:12:19.900Z,4.4
2019-02-22T08:15:19.571Z,4.5
2019-02-22T08:18:19.213Z,4.4
2019-02-22T08:21:19.323Z,4.3
2019-02-22T08:24:18.888Z,4.3
2019-02-22T08:27:19.216Z,4.4
2019-02-22T08:30:18.903Z,4.3
2019-02-22T08:33:19.307Z,4.1
2019-02-22T08:36:19.053Z,4.2
2019-02-22T08:39:19.141Z,4.2
2019-02-22T08:42:18.972Z,4.3
2019-02-22T08:45:19.812Z,4.2
2019-02-22T08:48:19.701Z,4.5
2019-02-22T08:51:19.305Z,4.7
2019-02-22T08:54:19.561Z,4.4
2019-02-22T08:57:19.078Z,4.4
2019-02-22T09:00:18.805Z,4.3
2019-02-22T09:03:18.992Z,4.1
2019-02-22T09:06:18.750Z,4.3
2019-02-22T09:09:18.885Z,4.4
2019-02-22T09:12:19.145Z,4.3
2019-02-22T09:15:19.002Z,4.2
2019-02-22T09:18:19.545Z,4.1
2019-02-22T09:21:19.559Z,4.1
2019-02-22T09:24:19.610Z,4.2
2019-02-22T09:27:19.188Z,4.2
2019-02-22T09:30:19.332Z,4.1
2019-02-22T09:33:19.227Z,4
2019-02-22T09:36:19.292Z,4.8
2019-02-22T09:39:18.897Z,8.3
2019-02-22T09:42:19.004Z,11.8
2019-02-22T09:45:18.916Z,14
2019-02-22T09:48:18.941Z,15.5
2019-02-22T09:51:19.131Z,16.7
2019-02-22T09:54:18.749Z,17.8
2019-02-22T09:57:19.003Z,17.9
2019-02-22T10:00:18.913Z,18.5
2019-02-22T10:03:19.672Z,19.3
2019-02-22T10:06:18.765Z,20.1
2019-02-22T10:09:18.902Z,20.3
2019-02-22T10:12:19.476Z,20.8
2019-02-22T10:15:19.174Z,20.6
2019-02-22T10:18:18.875Z,20.2
2019-02-22T10:21:19.179Z,20.2
2019-02-22T10:24:19.103Z,20.3
2019-02-22T10:27:18.909Z,19.8
2019-02-22T10:30:18.778Z,18.8
2019-02-22T10:33:18.945Z,18.7
2019-02-22T10:36:19.008Z,18.6
2019-02-22T10:39:18.863Z,17.4
2019-02-22T10:42:19.118Z,18
2019-02-22T10:45:19.101Z,18.2
2019-02-22T10:48:19.842Z,17.1
2019-02-22T10:51:18.863Z,16.4
2019-02-22T10:54:18.907Z,14.8
2019-02-22T10:57:19.152Z,12.9
2019-02-22T11:00:18.860Z,12.2
2019-02-22T11:03:19.071Z,10.8
2019-02-22T11:06:19.056Z,10
2019-02-22T11:09:19.997Z,10.6
2019-02-22T11:12:19.565Z,10.2
2019-02-22T11:15:18.980Z,8.9
2019-02-22T11:18:19.155Z,8.1
2019-02-22T11:21:19.281Z,8.3
2019-02-22T11:24:20.728Z,7.1
2019-02-22T11:27:19.527Z,6.3
2019-02-22T11:30:19.734Z,7.9
2019-02-22T11:33:19.774Z,7.5
2019-02-22T11:36:19.328Z,6.4
2019-02-22T11:39:18.956Z,6.4
2019-02-22T11:42:20.586Z,6.3
2019-02-22T11:45:18.909Z,5.7
2019-02-22T11:48:18.970Z,6
2019-02-22T11:51:19.066Z,6.4
2019-02-22T11:54:19.045Z,6
2019-02-22T11:57:20.727Z,5.9
2019-02-22T12:00:18.807Z,5.3
2019-02-22T12:03:25.511Z,5.6
2019-02-22T12:06:19.080Z,5.4
2019-02-22T12:09:18.946Z,5
2019-02-22T12:12:19.023Z,4.8
2019-02-22T12:15:19.200Z,4.9
2019-02-22T12:18:19.196Z,4.7
2019-02-22T12:21:19.004Z,4.5
2019-02-22T12:24:19.128Z,4.4
2019-02-22T12:27:19.586Z,4
2019-02-22T12:30:18.803Z,4.9
2019-02-22T12:33:18.982Z,4.3
2019-02-22T12:36:18.983Z,4.3
2019-02-22T12:39:19.524Z,3.9
2019-02-22T12:42:18.900Z,4.3
2019-02-22T12:45:18.809Z,3.9
2019-02-22T12:48:19.434Z,3.6
2019-02-22T12:51:19.156Z,3.7
2019-02-22T12:54:19.009Z,4
2019-02-22T12:57:19.265Z,4.1
2019-02-22T13:00:19.190Z,3.6
2019-02-22T13:03:19.100Z,3.6
2019-02-22T13:06:18.825Z,3.6
2019-02-22T13:09:19.004Z,3.6
2019-02-22T13:12:18.984Z,3.4
2019-02-22T13:15:18.858Z,3.4
2019-02-22T13:18:18.793Z,3.6
2019-02-22T13:21:19.524Z,3.5
2019-02-22T13:24:20.003Z,5.8
2019-02-22T13:27:19.221Z,4.5
2019-02-22T13:30:19.243Z,3.9
2019-02-22T13:33:19.175Z,3.7
2019-02-22T13:36:18.817Z,5
2019-02-22T13:39:19.196Z,4.3
2019-02-22T13:42:18.687Z,4.7
2019-02-22T13:45:27.536Z,4.8
2019-02-22T13:48:18.860Z,3.8
2019-02-22T13:51:20.730Z,5
2019-02-22T13:54:19.123Z,5.5
2019-02-22T13:57:19.155Z,4.7
2019-02-22T14:00:19.893Z,4.2
2019-02-22T14:03:20.719Z,4.8
2019-02-22T14:06:19.757Z,5.1
2019-02-22T14:09:18.550Z,4.5
2019-02-22T14:12:19.279Z,4.2
2019-02-22T14:15:19.270Z,3.5
2019-02-22T14:18:18.880Z,3.1
2019-02-22T14:21:19.184Z,3.8
2019-02-22T14:24:18.869Z,4.7
2019-02-22T14:27:18.803Z,5
2019-02-22T14:30:19.941Z,4.9
2019-02-22T14:33:20.706Z,5.3
2019-02-22T14:36:21.155Z,4.6
2019-02-22T14:39:19.053Z,4.3
2019-02-22T14:42:18.826Z,3.7
2019-02-22T14:45:19.170Z,3.7
2019-02-22T14:48:18.989Z,3
2019-02-22T14:51:19.071Z,3.3
2019-02-22T14:54:18.812Z,3.5
2019-02-22T14:57:19.223Z,3.2
2019-02-22T15:00:18.787Z,3.5
2019-02-22T15:03:19.451Z,4.3
2019-02-22T15:06:19.450Z,4.2
2019-02-22T15:09:19.194Z,4.4
2019-02-22T15:12:18.820Z,3.4
2019-02-22T15:15:19.859Z,2.8
2019-02-22T15:18:19.714Z,2.5
2019-02-22T15:21:19.180Z,2.6
2019-02-22T15:24:18.661Z,2.4
2019-02-22T15:27:18.837Z,2.4
2019-02-22T15:30:19.722Z,3.3
2019-02-22T15:33:18.651Z,2.7
2019-02-22T15:36:18.902Z,2.4
2019-02-22T15:39:18.922Z,2.3
2019-02-22T15:42:18.996Z,2.3
2019-02-22T15:45:18.960Z,2.3
2019-02-22T15:48:18.701Z,2.2
2019-02-22T15:51:19.204Z,2.1
2019-02-22T15:54:19.124Z,2.1
2019-02-22T15:57:19.001Z,2
2019-02-22T16:00:19.364Z,2.1
2019-02-22T16:03:18.996Z,2.1
2019-02-22T16:06:19.292Z,2.3
2019-02-22T16:09:19.080Z,2.1
2019-02-22T16:12:18.837Z,2.7
2019-02-22T16:15:18.998Z,2.6
2019-02-22T16:18:18.968Z,2.6
2019-02-22T16:21:19.491Z,2.8
2019-02-22T16:24:19.546Z,2.3
2019-02-22T16:27:18.487Z,2.6
2019-02-22T16:30:19.383Z,2.5
2019-02-22T16:33:18.930Z,6
2019-02-22T16:36:18.696Z,4.1
2019-02-22T16:39:18.932Z,3.2
2019-02-22T16:42:18.959Z,2.8
2019-02-22T16:45:18.722Z,3.2
2019-02-22T16:48:18.783Z,3.2
2019-02-22T16:51:19.174Z,2.5
2019-02-22T16:54:19.010Z,3.1
2019-02-22T16:57:20.571Z,2.9
2019-02-22T17:00:18.794Z,2.8
2019-02-22T17:03:18.900Z,2.5
2019-02-22T17:06:19.103Z,2.8
2019-02-22T17:09:19.113Z,3.1
2019-02-22T17:12:19.633Z,3.6
2019-02-22T17:15:19.070Z,3.4
2019-02-22T17:18:18.811Z,3.6
2019-02-22T17:21:18.791Z,4.2
2019-02-22T17:24:19.192Z,3.6
2019-02-22T17:27:19.354Z,4.3
2019-02-22T17:30:20.519Z,3.9
2019-02-22T17:33:19.684Z,3.8
2019-02-22T17:36:27.576Z,3.3
2019-02-22T17:39:18.689Z,3.1
2019-02-22T17:42:18.887Z,3.3
2019-02-22T17:45:18.953Z,3.6
2019-02-22T17:48:18.903Z,3.3
2019-02-22T17:51:19.360Z,2.7
2019-02-22T17:54:18.840Z,3
2019-02-22T17:57:18.759Z,2.6
2019-02-22T18:00:18.902Z,2.1
2019-02-22T18:03:20.628Z,1.9
2019-02-22T18:06:18.586Z,1.9
2019-02-22T18:09:19.168Z,1.9
2019-02-22T18:12:18.947Z,2.3
2019-02-22T18:15:18.930Z,2.5
2019-02-22T18:18:19.334Z,2.6
2019-02-22T18:21:18.940Z,2.3
2019-02-22T18:24:18.632Z,4.7
2019-02-22T18:27:18.932Z,4.2
2019-02-22T18:30:20.406Z,4.5
2019-02-22T18:33:18.763Z,3.7
2019-02-22T18:36:18.853Z,3.5
2019-02-22T18:39:18.867Z,3.6
2019-02-22T18:42:19.027Z,3.9
2019-02-22T18:45:18.643Z,3.3
2019-02-22T18:48:19.026Z,2.9
2019-02-22T18:51:18.849Z,3.3
2019-02-22T18:54:18.869Z,3.4
2019-02-22T18:57:18.797Z,3.1
2019-02-22T19:00:19.312Z,3.3
2019-02-22T19:03:18.577Z,2.9
2019-02-22T19:06:18.414Z,3.9
2019-02-22T19:09:18.395Z,3.3
2019-02-22T19:12:18.771Z,2.9
2019-02-22T19:15:18.906Z,2.9
2019-02-22T19:18:18.479Z,3.6
2019-02-22T19:21:19.237Z,3.1
2019-02-22T19:24:18.915Z,3
2019-02-22T19:27:18.780Z,2.9
2019-02-22T19:30:19.083Z,2.7
2019-02-22T19:33:18.825Z,2.6
2019-02-22T19:36:18.770Z,3.6
2019-02-22T19:39:18.996Z,5.9
2019-02-22T19:42:18.413Z,6.6
2019-02-22T19:45:18.838Z,6.6
2019-02-22T19:48:18.854Z,5.2
2019-02-22T19:51:18.867Z,5.2
2019-02-22T19:54:19.514Z,4.1
2019-02-22T19:57:19.121Z,3.7
2019-02-22T20:00:18.912Z,3.8
2019-02-22T20:03:18.760Z,4.2
2019-02-22T20:06:19.069Z,3.8
2019-02-22T20:09:18.873Z,4
2019-02-22T20:12:18.542Z,6.7
2019-02-22T20:15:18.519Z,8.9
2019-02-22T20:18:19.198Z,9
2019-02-22T20:21:18.631Z,12.3
2019-02-22T20:24:18.872Z,10
2019-02-22T20:27:18.509Z,10.4
2019-02-22T20:30:18.748Z,11.6
2019-02-22T20:33:18.589Z,11.7
2019-02-22T20:36:29.072Z,10.1
2019-02-22T20:39:18.780Z,9.6
2019-02-22T20:42:19.163Z,9.9
2019-02-22T20:45:19.327Z,10.1
2019-02-22T20:48:18.769Z,9.9
2019-02-22T20:51:18.759Z,8.8
2019-02-22T20:54:18.914Z,8.3
2019-02-22T20:57:18.833Z,8.5
2019-02-22T21:00:18.963Z,8.7
2019-02-22T21:03:19.090Z,9
2019-02-22T21:06:18.662Z,7.9
2019-02-22T21:09:18.549Z,7.7
2019-02-22T21:12:18.366Z,8.7
2019-02-22T21:15:18.936Z,10.1
2019-02-22T21:18:18.860Z,10.2
2019-02-22T21:21:18.339Z,9.4
2019-02-22T21:24:18.621Z,9.2
2019-02-22T21:27:18.661Z,9.5
2019-02-22T21:30:18.597Z,8.4
2019-02-22T21:33:18.911Z,7.3
2019-02-22T21:36:19.208Z,6.9
2019-02-22T21:39:19.596Z,8.2
2019-02-22T21:42:20.910Z,7.4
2019-02-22T21:45:18.634Z,6.3
2019-02-22T21:48:28.166Z,5.7
2019-02-22T21:51:20.552Z,6.5
2019-02-22T21:54:19.013Z,5.7
2019-02-22T21:57:18.872Z,5.4
2019-02-22T22:00:18.748Z,5.4
2019-02-22T22:03:18.808Z,5.4
2019-02-22T22:06:18.789Z,4.9
2019-02-22T22:09:20.304Z,4.8
2019-02-22T22:12:19.908Z,4.5
2019-02-22T22:15:18.828Z,4.7
2019-02-22T22:18:18.792Z,4.9
2019-02-22T22:21:18.564Z,4.6
2019-02-22T22:24:19.072Z,5.7
2019-02-22T22:27:18.545Z,7.1
2019-02-22T22:30:18.882Z,5.4
2019-02-22T22:33:18.538Z,4.3
2019-02-22T22:36:19.025Z,4.5
2019-02-22T22:39:18.845Z,4.9
2019-02-22T22:42:18.575Z,4.5
2019-02-22T22:45:19.516Z,3.9
2019-02-22T22:48:18.855Z,4.8
2019-02-22T22:51:18.906Z,4.2
2019-02-22T22:54:18.848Z,4
2019-02-22T22:57:20.433Z,4
2019-02-22T23:00:20.485Z,5.4
2019-02-22T23:03:18.926Z,4.2
2019-02-22T23:06:19.149Z,3.4
2019-02-22T23:09:18.841Z,3.5
2019-02-22T23:12:18.662Z,3.9
2019-02-22T23:15:18.462Z,3.4
2019-02-22T23:18:20.289Z,4.2
2019-02-22T23:21:18.380Z,4.2
2019-02-22T23:24:18.401Z,3.8
2019-02-22T23:27:19.479Z,3.2
2019-02-22T23:30:18.908Z,3.8
2019-02-22T23:33:18.727Z,3.8
2019-02-22T23:36:18.538Z,3.3
2019-02-22T23:39:18.890Z,3.3
2019-02-22T23:42:18.763Z,3.2
2019-02-22T23:45:20.283Z,3
2019-02-22T23:48:18.410Z,2.8
2019-02-22T23:51:18.719Z,2.7
2019-02-22T23:54:18.508Z,2.6
2019-02-22T23:57:18.603Z,2.5
